Terminal Aerodrome Forecast
Issued by NWS

Home | Current Version | Previous Version | Text Only | Print | Product List | Glossary On
Versions: 1 2 3 4 5 6 7 8 9 10 11 12 13 14 15 16 17
000
FTUS42 KMLB 010346 AAA
TAFISM
TAF AMD
KISM 010346Z 0104/0124 04004KT P6SM SCT022 OVC080
     FM010500 06004KT 3SM BR OVC003
     FM011400 14005KT P6SM SCT008 BKN020
     FM011800 13008KT P6SM BKN040=

USA.gov is the U.S. government's official web portal to all federal, state and local government web resources and services.